createdAt,value
2018-11-28T00:00:30.087Z,95.00
2018-11-28T00:02:59.485Z,95.10
2018-11-28T00:05:27.766Z,95.20
2018-11-28T00:07:56.030Z,95.20
2018-11-28T00:10:24.352Z,95.40
2018-11-28T00:12:52.686Z,95.40
2018-11-28T00:15:21.002Z,95.40
2018-11-28T00:17:49.293Z,95.50
2018-11-28T00:20:19.420Z,95.70
2018-11-28T00:22:47.902Z,95.80
2018-11-28T00:25:16.806Z,95.80
2018-11-28T00:27:45.092Z,95.70
2018-11-28T00:30:19.863Z,95.90
2018-11-28T00:32:48.139Z,95.80
2018-11-28T00:35:19.066Z,95.70
2018-11-28T00:37:47.371Z,95.80
2018-11-28T00:40:16.719Z,95.90
2018-11-28T00:42:44.992Z,96.10
2018-11-28T00:45:16.228Z,95.80
2018-11-28T00:47:44.546Z,95.80
2018-11-28T00:50:13.875Z,96.00
2018-11-28T00:52:42.200Z,95.80
2018-11-28T00:55:11.793Z,95.70
2018-11-28T00:57:40.378Z,95.80
2018-11-28T01:00:13.280Z,95.70
2018-11-28T01:02:41.813Z,95.90
2018-11-28T01:05:10.947Z,95.80
2018-11-28T01:07:39.447Z,96.10
2018-11-28T01:10:17.152Z,96.00
2018-11-28T01:12:45.804Z,96.10
2018-11-28T01:15:15.016Z,96.40
2018-11-28T01:17:43.409Z,96.10
2018-11-28T01:20:13.392Z,95.90
2018-11-28T01:22:41.688Z,96.10
2018-11-28T01:25:11.855Z,96.20
2018-11-28T01:27:40.180Z,96.10
2018-11-28T01:30:12.041Z,96.00
2018-11-28T01:32:40.543Z,96.10
2018-11-28T01:35:11.624Z,96.20
2018-11-28T01:37:40.048Z,96.20
2018-11-28T01:40:16.551Z,96.20
2018-11-28T01:42:44.806Z,96.20
2018-11-28T01:45:13.944Z,96.30
2018-11-28T01:47:42.414Z,96.40
2018-11-28T01:50:11.727Z,96.70
2018-11-28T01:52:40.006Z,96.60
2018-11-28T01:55:10.457Z,96.50
2018-11-28T01:57:38.801Z,96.60
2018-11-28T02:00:18.999Z,96.60
2018-11-28T02:02:48.383Z,96.90
2018-11-28T02:05:16.991Z,96.80
2018-11-28T02:07:45.460Z,97.00
2018-11-28T02:10:15.303Z,97.10
2018-11-28T02:12:43.648Z,97.00
2018-11-28T02:15:18.914Z,97.00
2018-11-28T02:17:47.240Z,97.20
2018-11-28T02:20:17.156Z,97.20
2018-11-28T02:22:45.760Z,97.40
2018-11-28T02:25:14.920Z,97.50
2018-11-28T02:27:43.259Z,97.50
2018-11-28T02:30:13.656Z,97.50
2018-11-28T02:32:41.919Z,97.50
2018-11-28T02:35:12.396Z,97.50
2018-11-28T02:37:40.700Z,97.50
2018-11-28T02:40:10.057Z,97.50
2018-11-28T02:42:38.557Z,97.50
2018-11-28T02:45:14.216Z,97.50
2018-11-28T02:47:42.468Z,97.50
2018-11-28T02:50:10.731Z,97.50
2018-11-28T02:52:39.246Z,97.50
2018-11-28T02:55:10.497Z,97.70
2018-11-28T02:57:39.097Z,97.60
2018-11-28T03:00:10.051Z,97.60
2018-11-28T03:02:38.308Z,97.60
2018-11-28T03:05:08.031Z,97.60
2018-11-28T03:07:36.545Z,97.60
2018-11-28T03:10:08.203Z,97.50
2018-11-28T03:12:36.515Z,97.60
2018-11-28T03:15:05.489Z,97.60
2018-11-28T03:17:34.096Z,97.60
2018-11-28T03:20:02.720Z,97.60
2018-11-28T03:22:31.018Z,97.70
2018-11-28T03:24:59.323Z,97.60
2018-11-28T03:27:27.589Z,97.60
2018-11-28T03:29:55.857Z,97.60
2018-11-28T03:32:24.449Z,97.60
2018-11-28T03:34:52.778Z,97.70
2018-11-28T03:37:21.063Z,97.60
2018-11-28T03:39:49.327Z,97.80
2018-11-28T03:42:17.616Z,97.70
2018-11-28T03:44:45.883Z,97.60
2018-11-28T03:47:14.127Z,97.60
2018-11-28T03:49:42.431Z,97.80
2018-11-28T03:52:10.715Z,98.10
2018-11-28T03:54:39.415Z,98.10
2018-11-28T03:57:08.125Z,97.80
2018-11-28T03:59:36.872Z,98.00
2018-11-28T04:02:05.769Z,98.20
2018-11-28T04:04:34.560Z,98.40
2018-11-28T04:07:03.347Z,98.30
2018-11-28T04:09:31.616Z,98.50
2018-11-28T04:11:59.909Z,98.40
2018-11-28T04:14:28.532Z,98.50
2018-11-28T04:16:56.793Z,98.60
2018-11-28T04:19:25.106Z,98.50
2018-11-28T04:21:53.357Z,98.50
2018-11-28T04:24:21.608Z,98.60
2018-11-28T04:26:50.240Z,98.80
2018-11-28T04:29:18.525Z,98.80
2018-11-28T04:31:46.796Z,98.90
2018-11-28T04:34:15.548Z,99.00
2018-11-28T04:36:43.816Z,99.10
2018-11-28T04:39:12.135Z,99.00
2018-11-28T04:41:40.433Z,99.20
2018-11-28T04:44:09.077Z,99.20
2018-11-28T04:46:37.360Z,99.10
2018-11-28T04:49:05.774Z,99.00
2018-11-28T04:51:34.112Z,99.10
2018-11-28T04:54:02.405Z,99.30
2018-11-28T04:56:30.709Z,99.10
2018-11-28T04:58:59.125Z,99.20
2018-11-28T05:01:27.418Z,99.30
2018-11-28T05:03:55.713Z,99.20
2018-11-28T05:06:35.878Z,99.30
2018-11-28T05:09:04.586Z,99.40
2018-11-28T05:11:32.857Z,99.70
2018-11-28T05:14:01.243Z,99.60
2018-11-28T05:16:29.564Z,99.80
2018-11-28T05:18:57.896Z,99.70
2018-11-28T05:21:26.165Z,99.70
2018-11-28T05:23:54.760Z,99.90
2018-11-28T05:26:23.099Z,99.90
2018-11-28T05:28:51.356Z,99.90
2018-11-28T05:31:19.684Z,99.80
2018-11-28T05:33:48.198Z,99.70
2018-11-28T05:36:17.075Z,99.70
2018-11-28T05:38:45.390Z,99.60
2018-11-28T05:41:13.636Z,99.50
2018-11-28T05:43:43.616Z,99.50
2018-11-28T05:46:11.900Z,99.50
2018-11-28T05:48:40.157Z,99.30
2018-11-28T05:51:08.435Z,99.20
2018-11-28T05:53:37.195Z,99.20
2018-11-28T05:56:05.920Z,99.30
2018-11-28T05:58:38.292Z,99.20
2018-11-28T06:01:06.755Z,99.00
2018-11-28T06:03:35.039Z,98.70
2018-11-28T06:06:04.592Z,98.80
2018-11-28T06:08:32.892Z,98.40
2018-11-28T06:11:01.156Z,98.50
2018-11-28T06:13:31.225Z,98.50
2018-11-28T06:16:00.003Z,98.50
2018-11-28T06:18:28.310Z,98.50
2018-11-28T06:20:56.800Z,98.10
2018-11-28T06:23:25.425Z,98.40
2018-11-28T06:25:53.695Z,98.40
2018-11-28T06:28:22.000Z,98.40
2018-11-28T06:30:50.286Z,98.40
2018-11-28T06:33:18.563Z,98.30
2018-11-28T06:35:46.987Z,98.40
2018-11-28T06:38:15.506Z,98.30
2018-11-28T06:40:43.803Z,98.70
2018-11-28T06:43:12.376Z,98.50
2018-11-28T06:45:40.672Z,98.60
2018-11-28T06:48:08.958Z,98.60
2018-11-28T06:50:38.096Z,98.60
2018-11-28T06:53:06.381Z,98.80
2018-11-28T06:55:35.379Z,99.00
2018-11-28T06:58:04.889Z,99.00
2018-11-28T07:00:33.175Z,99.20
2018-11-28T07:03:01.489Z,99.40
2018-11-28T07:05:29.984Z,99.20
2018-11-28T07:07:58.340Z,99.30
2018-11-28T07:10:26.640Z,99.40
2018-11-28T07:12:55.005Z,99.40
2018-11-28T07:15:24.269Z,99.60
2018-11-28T07:17:52.623Z,99.50
2018-11-28T07:20:21.927Z,99.30
2018-11-28T07:22:50.277Z,99.20
2018-11-28T07:25:19.039Z,98.90
2018-11-28T07:27:48.064Z,98.60
2018-11-28T07:30:19.257Z,98.40
2018-11-28T07:32:48.867Z,98.60
2018-11-28T07:35:17.150Z,98.60
2018-11-28T07:37:45.852Z,98.30
2018-11-28T07:40:15.479Z,98.10
2018-11-28T07:42:46.481Z,98.30
2018-11-28T07:45:14.817Z,98.20
2018-11-28T07:47:43.114Z,97.40
2018-11-28T07:50:11.745Z,97.20
2018-11-28T07:52:40.755Z,97.10
2018-11-28T07:55:10.917Z,96.90
2018-11-28T07:57:40.002Z,96.60
2018-11-28T08:00:11.944Z,96.50
2018-11-28T08:02:40.265Z,96.10
2018-11-28T08:05:11.471Z,96.00
2018-11-28T08:07:39.799Z,96.20
2018-11-28T08:10:09.715Z,96.10
2018-11-28T08:12:38.097Z,95.80
2018-11-28T08:15:22.283Z,96.40
2018-11-28T08:17:52.668Z,95.80
2018-11-28T08:20:21.654Z,95.60
2018-11-28T08:22:49.921Z,96.00
2018-11-28T08:25:18.456Z,96.00
2018-11-28T08:27:47.714Z,95.70
2018-11-28T08:30:21.771Z,95.20
2018-11-28T08:35:25.330Z,95.20
2018-11-28T08:37:53.632Z,95.10
2018-11-28T08:40:25.010Z,95.40
2018-11-28T08:42:55.514Z,95.50
2018-11-28T08:45:26.124Z,95.20
2018-11-28T08:47:55.974Z,95.10
2018-11-28T08:50:27.026Z,94.90
2018-11-28T08:52:55.308Z,95.20
2018-11-28T08:55:23.640Z,95.20
2018-11-28T08:57:52.017Z,94.60
2018-11-28T09:00:21.876Z,94.40
2018-11-28T09:02:53.807Z,94.60
2018-11-28T09:05:22.144Z,95.20
2018-11-28T09:07:51.260Z,94.30
2018-11-28T09:10:20.092Z,94.70
2018-11-28T09:12:49.933Z,94.00
2018-11-28T09:15:28.189Z,94.80
2018-11-28T09:18:00.208Z,94.50
2018-11-28T09:20:28.874Z,94.40
2018-11-28T09:22:58.376Z,94.10
2018-11-28T09:28:00.623Z,94.00
2018-11-28T09:30:29.031Z,93.60
2018-11-28T09:32:57.368Z,93.90
2018-11-28T09:35:26.268Z,93.50
2018-11-28T09:37:54.833Z,93.20
2018-11-28T09:40:25.070Z,93.50
2018-11-28T09:42:55.403Z,92.90
2018-11-28T09:45:23.988Z,93.90
2018-11-28T09:47:52.476Z,94.70
2018-11-28T09:50:24.429Z,95.00
2018-11-28T09:52:52.718Z,95.40
2018-11-28T09:55:24.314Z,96.00
2018-11-28T09:57:52.622Z,95.20
2018-11-28T10:00:23.561Z,95.70
2018-11-28T10:02:53.808Z,95.70
2018-11-28T10:05:24.928Z,95.60
2018-11-28T10:07:54.196Z,95.80
2018-11-28T10:10:22.812Z,96.00
2018-11-28T10:12:51.195Z,95.60
2018-11-28T10:15:21.631Z,95.30
2018-11-28T10:17:50.199Z,94.90
2018-11-28T10:20:18.984Z,94.00
2018-11-28T10:22:47.935Z,94.50
2018-11-28T10:25:18.055Z,94.50
2018-11-28T10:27:49.041Z,94.30
2018-11-28T10:30:26.123Z,94.10
2018-11-28T10:32:54.692Z,94.00
2018-11-28T10:35:23.641Z,93.10
2018-11-28T10:37:51.936Z,93.90
2018-11-28T10:40:21.076Z,93.30
2018-11-28T10:42:51.796Z,92.60
2018-11-28T10:45:21.007Z,92.50
2018-11-28T10:47:49.616Z,92.10
2018-11-28T10:50:19.515Z,92.20
2018-11-28T10:52:48.020Z,92.20
2018-11-28T10:55:17.255Z,91.50
2018-11-28T10:57:46.063Z,90.60
2018-11-28T11:00:26.541Z,90.50
2018-11-28T11:03:00.247Z,90.30
2018-11-28T11:05:34.039Z,90.60
2018-11-28T11:08:07.748Z,90.10
2018-11-28T11:10:41.474Z,88.80
2018-11-28T11:13:16.798Z,90.10
2018-11-28T11:15:49.307Z,90.10
2018-11-28T11:18:17.600Z,89.60
2018-11-28T11:20:45.921Z,87.90
2018-11-28T11:23:14.249Z,86.60
2018-11-28T11:25:42.583Z,86.90
2018-11-28T11:28:11.088Z,86.90
2018-11-28T11:30:39.709Z,86.60
2018-11-28T11:33:08.019Z,88.60
2018-11-28T11:35:36.904Z,85.90
2018-11-28T11:38:05.528Z,86.00
2018-11-28T11:40:34.124Z,85.90
2018-11-28T11:43:04.187Z,88.80
2018-11-28T11:45:32.493Z,88.30
2018-11-28T11:48:01.101Z,85.80
2018-11-28T11:50:31.438Z,85.50
2018-11-28T11:52:59.718Z,85.90
2018-11-28T11:55:27.994Z,84.70
2018-11-28T11:57:56.271Z,82.90
2018-11-28T12:00:25.471Z,83.40
2018-11-28T12:03:16.633Z,81.90
2018-11-28T12:05:48.343Z,80.80
2018-11-28T12:08:16.672Z,81.50
2018-11-28T12:10:45.280Z,79.60
2018-11-28T12:13:13.820Z,79.10
2018-11-28T12:15:42.168Z,81.00
2018-11-28T12:18:10.496Z,79.00
2018-11-28T12:20:42.830Z,80.10
2018-11-28T12:23:11.518Z,79.60
2018-11-28T12:25:40.147Z,80.90
2018-11-28T12:28:09.172Z,81.00
2018-11-28T12:30:37.447Z,80.00
2018-11-28T12:33:06.396Z,80.50
2018-11-28T12:35:34.757Z,80.40
2018-11-28T12:38:03.337Z,81.80
2018-11-28T12:40:32.748Z,82.40
2018-11-28T12:43:02.481Z,80.10
2018-11-28T12:45:30.761Z,81.20
2018-11-28T12:47:59.136Z,79.60
2018-11-28T12:50:28.468Z,79.70
2018-11-28T12:52:57.935Z,79.70
2018-11-28T12:55:26.257Z,79.60
2018-11-28T12:57:55.552Z,79.60
2018-11-28T13:00:25.932Z,79.30
2018-11-28T13:02:54.564Z,80.00
2018-11-28T13:05:26.472Z,79.50
2018-11-28T13:07:54.853Z,81.40
2018-11-28T13:10:27.386Z,82.00
2018-11-28T13:12:55.961Z,82.30
2018-11-28T13:15:25.251Z,82.20
2018-11-28T13:17:53.587Z,81.00
2018-11-28T13:20:22.452Z,83.10
2018-11-28T13:22:51.922Z,82.90
2018-11-28T13:25:24.389Z,81.60
2018-11-28T13:27:52.672Z,81.30
2018-11-28T13:30:21.711Z,79.80
2018-11-28T13:32:50.598Z,79.80
2018-11-28T13:35:24.147Z,80.40
2018-11-28T13:37:59.187Z,80.30
2018-11-28T13:40:27.908Z,79.70
2018-11-28T13:42:56.269Z,79.60
2018-11-28T13:45:27.016Z,79.70
2018-11-28T13:47:55.952Z,80.00
2018-11-28T13:50:24.636Z,80.70
2018-11-28T13:52:53.898Z,80.00
2018-11-28T13:55:38.845Z,80.40
2018-11-28T13:58:02.571Z,81.10
2018-11-28T14:00:31.105Z,82.80
2018-11-28T14:02:59.483Z,82.20
2018-11-28T14:05:28.099Z,81.90
2018-11-28T14:07:56.455Z,81.70
2018-11-28T14:10:24.741Z,81.20
2018-11-28T14:12:53.994Z,82.30
2018-11-28T14:15:22.900Z,82.80
2018-11-28T14:17:54.483Z,82.70
2018-11-28T14:20:22.821Z,83.10
2018-11-28T14:22:51.104Z,84.30
2018-11-28T14:25:19.408Z,84.00
2018-11-28T14:27:47.862Z,84.60
2018-11-28T14:30:17.091Z,84.00
2018-11-28T14:32:46.524Z,83.90
2018-11-28T14:35:14.977Z,84.60
2018-11-28T14:37:43.663Z,83.00
2018-11-28T14:40:27.322Z,84.10
2018-11-28T14:42:57.660Z,85.00
2018-11-28T14:45:26.348Z,90.20
2018-11-28T14:47:54.806Z,91.30
2018-11-28T14:50:25.159Z,90.90
2018-11-28T14:52:54.401Z,92.00
2018-11-28T14:55:23.705Z,92.00
2018-11-28T14:57:51.992Z,92.30
2018-11-28T15:00:23.358Z,92.40
2018-11-28T15:02:53.723Z,92.10
2018-11-28T15:05:36.796Z,92.50
2018-11-28T15:08:08.197Z,94.20
2018-11-28T15:10:47.402Z,95.20
2018-11-28T15:13:15.701Z,95.20
2018-11-28T15:15:43.998Z,95.00
2018-11-28T15:18:12.333Z,95.10
2018-11-28T15:20:40.625Z,95.20
2018-11-28T15:23:08.944Z,95.20
2018-11-28T15:25:37.271Z,95.80
2018-11-28T15:28:05.645Z,95.40
2018-11-28T15:30:33.958Z,95.50
2018-11-28T15:33:02.522Z,94.80
2018-11-28T15:35:30.833Z,95.40
2018-11-28T15:37:59.237Z,95.60
2018-11-28T15:40:27.528Z,95.40
2018-11-28T15:42:55.826Z,95.60
2018-11-28T15:45:24.532Z,95.70
2018-11-28T15:47:53.260Z,95.40
2018-11-28T15:50:22.592Z,95.80
2018-11-28T15:52:50.864Z,97.80
2018-11-28T15:55:19.614Z,99.10
2018-11-28T15:57:47.996Z,99.90
2018-11-28T16:00:22.396Z,99.90
2018-11-28T16:02:49.890Z,99.90
2018-11-28T16:05:18.218Z,99.90
2018-11-28T16:07:46.519Z,99.90
2018-11-28T16:10:20.479Z,99.90
2018-11-28T16:12:49.500Z,99.90
2018-11-28T16:15:22.989Z,99.90
2018-11-28T16:17:51.355Z,99.90
2018-11-28T16:20:20.000Z,99.90
2018-11-28T16:22:48.359Z,99.90
2018-11-28T16:25:17.042Z,99.90
2018-11-28T16:27:45.316Z,99.90
2018-11-28T16:30:14.477Z,99.90
2018-11-28T16:32:44.090Z,99.90
2018-11-28T16:35:14.337Z,99.90
2018-11-28T16:37:42.628Z,99.90
2018-11-28T16:40:14.958Z,99.90
2018-11-28T16:42:43.364Z,99.90
2018-11-28T16:45:14.250Z,99.90
2018-11-28T16:47:43.036Z,99.90
2018-11-28T16:50:13.218Z,99.90
2018-11-28T16:52:42.275Z,99.90
2018-11-28T16:55:14.743Z,99.90
2018-11-28T16:57:48.353Z,99.90
2018-11-28T17:00:22.507Z,99.90
2018-11-28T17:02:51.135Z,99.90
2018-11-28T17:05:21.077Z,99.90
2018-11-28T17:07:49.608Z,99.90
2018-11-28T17:10:19.938Z,99.90
2018-11-28T17:12:49.451Z,99.90
2018-11-28T17:15:18.568Z,99.90
2018-11-28T17:17:46.983Z,99.90
2018-11-28T17:20:18.293Z,99.90
2018-11-28T17:22:47.281Z,99.90
2018-11-28T17:25:24.375Z,99.90
2018-11-28T17:27:52.790Z,99.90
2018-11-28T17:30:25.140Z,99.90
2018-11-28T17:32:53.569Z,99.90
2018-11-28T17:35:21.830Z,99.90
2018-11-28T17:37:50.623Z,99.90
2018-11-28T17:40:20.573Z,99.90
2018-11-28T17:42:50.119Z,99.90
2018-11-28T17:45:18.824Z,99.90
2018-11-28T17:47:47.155Z,99.90
2018-11-28T17:50:18.890Z,99.90
2018-11-28T17:53:08.729Z,99.90
2018-11-28T17:55:56.851Z,99.90
2018-11-28T17:58:25.209Z,99.90
2018-11-28T18:00:53.726Z,99.90
2018-11-28T18:03:22.693Z,99.90
2018-11-28T18:05:51.368Z,99.90
2018-11-28T18:08:19.675Z,99.90
2018-11-28T18:10:48.234Z,99.90
2018-11-28T18:13:18.139Z,99.90
2018-11-28T18:16:01.124Z,99.90
2018-11-28T18:18:31.043Z,99.90
2018-11-28T18:20:58.814Z,99.90
2018-11-28T18:23:27.476Z,99.90
2018-11-28T18:25:56.215Z,99.90
2018-11-28T18:28:24.715Z,99.90
2018-11-28T18:30:53.010Z,99.90
2018-11-28T18:33:21.424Z,99.90
2018-11-28T18:35:49.857Z,99.90
2018-11-28T18:38:18.284Z,99.90
2018-11-28T18:40:46.573Z,99.90
2018-11-28T18:43:14.996Z,99.90
2018-11-28T18:45:46.108Z,99.90
2018-11-28T18:48:14.414Z,99.90
2018-11-28T18:50:42.796Z,99.90
2018-11-28T18:53:11.156Z,99.90
2018-11-28T18:55:39.560Z,99.90
2018-11-28T18:58:09.691Z,99.90
2018-11-28T19:00:38.129Z,99.90
2018-11-28T19:03:07.572Z,99.90
2018-11-28T19:05:36.501Z,99.90
2018-11-28T19:08:04.975Z,99.90
2018-11-28T19:10:33.372Z,99.90
2018-11-28T19:13:01.670Z,99.90
2018-11-28T19:15:29.987Z,99.90
2018-11-28T19:17:59.047Z,99.90
2018-11-28T19:20:27.417Z,99.90
2018-11-28T19:22:56.945Z,99.90
2018-11-28T19:25:27.122Z,99.90
2018-11-28T19:27:55.433Z,99.90
2018-11-28T19:30:31.165Z,99.90
2018-11-28T19:33:00.558Z,99.90
2018-11-28T19:35:29.457Z,99.90
2018-11-28T19:37:58.076Z,99.90
2018-11-28T19:40:31.277Z,99.90
2018-11-28T19:42:59.604Z,99.90
2018-11-28T19:45:28.569Z,99.90
2018-11-28T19:47:56.878Z,99.90
2018-11-28T19:50:26.908Z,99.90
2018-11-28T19:52:55.423Z,99.90
2018-11-28T19:55:23.751Z,99.90
2018-11-28T19:57:52.136Z,99.90
2018-11-28T20:00:20.512Z,99.90
2018-11-28T20:02:49.110Z,99.90
2018-11-28T20:05:17.633Z,99.90
2018-11-28T20:07:47.235Z,99.90
2018-11-28T20:10:16.948Z,99.90
2018-11-28T20:12:45.253Z,99.90
2018-11-28T20:15:16.910Z,99.90
2018-11-28T20:17:45.421Z,99.90
2018-11-28T20:20:14.563Z,99.90
2018-11-28T20:22:43.321Z,99.90
2018-11-28T20:25:12.924Z,99.90
2018-11-28T20:27:41.829Z,99.90
2018-11-28T20:30:46.836Z,99.90
2018-11-28T20:33:16.498Z,99.90
2018-11-28T20:35:45.845Z,99.90
2018-11-28T20:38:19.518Z,99.90
2018-11-28T20:40:46.586Z,99.90
2018-11-28T20:43:14.981Z,99.90
2018-11-28T20:45:43.606Z,99.90
2018-11-28T20:48:11.903Z,99.90
2018-11-28T20:50:40.220Z,99.90
2018-11-28T20:53:10.002Z,99.90
2018-11-28T20:55:38.305Z,99.90
2018-11-28T20:58:07.225Z,99.90
2018-11-28T21:00:35.643Z,99.90
2018-11-28T21:03:03.970Z,99.90
2018-11-28T21:05:32.535Z,99.90
2018-11-28T21:08:03.352Z,99.90
2018-11-28T21:10:40.872Z,99.90
2018-11-28T21:13:12.947Z,99.90
2018-11-28T21:15:42.369Z,99.90
2018-11-28T21:18:13.853Z,99.90
2018-11-28T21:20:43.490Z,99.90
2018-11-28T21:23:13.949Z,99.90
2018-11-28T21:25:42.219Z,99.90
2018-11-28T21:28:10.501Z,99.90
2018-11-28T21:30:38.922Z,99.90
2018-11-28T21:33:08.544Z,99.90
2018-11-28T21:35:38.635Z,99.90
2018-11-28T21:38:07.741Z,99.90
2018-11-28T21:40:36.633Z,99.90
2018-11-28T21:43:22.844Z,99.90
2018-11-28T21:45:51.631Z,99.90
2018-11-28T21:48:20.028Z,99.90
2018-11-28T21:50:48.422Z,99.90
2018-11-28T21:53:21.526Z,99.90
2018-11-28T21:55:50.560Z,99.90
2018-11-28T21:58:21.007Z,99.90
2018-11-28T22:00:50.869Z,99.90
2018-11-28T22:03:19.677Z,99.90
2018-11-28T22:05:48.510Z,99.90
2018-11-28T22:08:17.400Z,99.90
2018-11-28T22:10:53.670Z,99.90
2018-11-28T22:13:22.142Z,99.90
2018-11-28T22:15:50.588Z,99.90
2018-11-28T22:18:19.289Z,99.90
2018-11-28T22:20:47.996Z,99.90
2018-11-28T22:23:16.282Z,99.90
2018-11-28T22:25:44.594Z,99.90
2018-11-28T22:28:12.916Z,99.90
2018-11-28T22:30:41.587Z,99.90
2018-11-28T22:33:09.882Z,99.90
2018-11-28T22:35:38.650Z,99.90
2018-11-28T22:38:06.945Z,99.90
2018-11-28T22:40:35.573Z,99.90
2018-11-28T22:43:03.929Z,99.90
2018-11-28T22:45:34.463Z,99.90
2018-11-28T22:48:03.132Z,99.90
2018-11-28T22:50:31.633Z,99.90
2018-11-28T22:52:59.926Z,99.90
2018-11-28T22:55:28.401Z,99.90
2018-11-28T22:57:56.884Z,99.90
2018-11-28T23:00:32.511Z,99.90
2018-11-28T23:03:04.047Z,99.90
2018-11-28T23:06:04.648Z,99.90
2018-11-28T23:08:33.170Z,99.90
2018-11-28T23:11:02.080Z,99.90
2018-11-28T23:13:30.460Z,99.90
2018-11-28T23:15:59.022Z,99.90
2018-11-28T23:18:27.320Z,99.90
2018-11-28T23:20:55.993Z,99.90
2018-11-28T23:23:24.663Z,99.90
2018-11-28T23:25:53.141Z,99.90
2018-11-28T23:28:21.395Z,99.90
2018-11-28T23:30:49.673Z,99.90
2018-11-28T23:33:17.961Z,99.90
2018-11-28T23:35:46.212Z,99.90
2018-11-28T23:38:14.495Z,99.90
2018-11-28T23:40:42.846Z,99.90
2018-11-28T23:43:11.142Z,99.90
2018-11-28T23:45:39.408Z,99.90
2018-11-28T23:48:07.665Z,99.90
2018-11-28T23:50:36.304Z,99.90
2018-11-28T23:53:04.564Z,99.90
2018-11-28T23:55:32.859Z,99.90
2018-11-28T23:58:01.496Z,99.90
